Bejaia, Algeria
Current Conditions -  °F | °C
As of 4:00 AM on Monday 24 Nov 2014 (Local Time) from DAAE Reporting Station
Clear Clear  
Wind Chill: 68°   Ceiling: Unl
Heat Index: 68°   Visibility: 6mi
Dew Point: 54°   Wind: 6mph
Humidity: 60%   Direction: 260°W
Pressure: 30.06"   Gusts: NA
Location:  36.54°N, 4.97°E
Report Text: DAAE 240300Z 26005KT CAVOK 20/12 Q1018
Loading
Personal Weather Stations






























Interactive Weather Map New forecast layout! Learn more

10-Day Weather Forecast

Advertisements
Track Severe Weather on mobile